Time;durP1;ratioP1;P1;durP2;ratioP2;P2;SDS_P1;SDS_P2;PMS_P1;PMS_P2;Temp;Humidity;BMP_temperature;BMP_pressure;BME280_temperature;BME280_humidity;BME280_pressure;Samples;Min_cycle;Max_cycle;Signal;HPM_P1;HPM_P2
2024/03/03 00:00:39;;;;;;;8.80;5.67;;;;;;;8.52;100.00;99854.13;5057094;28;20453;-67
2024/03/03 00:03:05;;;;;;;8.90;5.80;;;;;;;8.52;100.00;99868.31;5056633;28;20634;-68
2024/03/03 00:05:30;;;;;;;10.90;6.30;;;;;;;8.65;100.00;99874.66;5055737;28;20198;-67
2024/03/03 00:07:56;;;;;;;9.13;5.37;;;;;;;8.33;100.00;99851.28;5054483;28;20700;-67
2024/03/03 00:10:21;;;;;;;9.70;5.70;;;;;;;8.04;100.00;99823.16;5051424;28;20220;-67
2024/03/03 00:12:47;;;;;;;11.20;6.10;;;;;;;8.45;100.00;99888.09;5059115;28;20207;-67
2024/03/03 00:15:12;;;;;;;9.70;6.00;;;;;;;8.59;100.00;99903.91;5058325;28;20188;-69
2024/03/03 00:17:38;;;;;;;11.27;6.47;;;;;;;8.48;100.00;99903.72;5051418;28;20183;-68
2024/03/03 00:20:04;;;;;;;9.67;5.80;;;;;;;8.45;100.00;99882.75;5053525;28;20257;-67
2024/03/03 00:22:31;;;;;;;8.53;5.63;;;;;;;8.47;100.00;99867.31;5056025;28;20271;-68
2024/03/03 00:24:57;;;;;;;8.90;5.20;;;;;;;8.22;100.00;99840.41;5055762;28;20441;-67
2024/03/03 00:27:22;;;;;;;10.47;6.10;;;;;;;7.89;100.00;99815.34;5051924;28;20433;-68
2024/03/03 00:29:48;;;;;;;10.70;6.13;;;;;;;8.22;100.00;99875.94;5048563;28;20197;-67
2024/03/03 00:32:13;;;;;;;10.40;5.50;;;;;;;7.96;100.00;99847.41;5053100;28;20244;-67
2024/03/03 00:34:42;;;;;;;8.90;5.60;;;;;;;8.25;100.00;99872.88;5056664;28;20194;-68
2024/03/03 00:37:08;;;;;;;10.70;5.80;;;;;;;8.00;100.00;99861.16;5055596;28;20255;-68
2024/03/03 00:39:37;;;;;;;11.07;6.30;;;;;;;8.42;100.00;99899.16;5051113;28;20445;-66
2024/03/03 00:42:03;;;;;;;9.80;5.30;;;;;;;8.13;100.00;99867.31;5048070;28;20726;-67
2024/03/03 00:44:29;;;;;;;11.90;6.93;;;;;;;8.13;100.00;99877.19;5047736;28;20715;-67
2024/03/03 00:46:55;;;;;;;8.47;5.40;;;;;;;8.05;100.00;99835.47;5044322;28;20511;-68
2024/03/03 00:49:20;;;;;;;10.10;5.33;;;;;;;7.95;100.00;99811.03;5047554;28;20651;-68
2024/03/03 00:51:46;;;;;;;10.63;5.67;;;;;;;8.09;100.00;99811.84;5046764;28;20245;-68
2024/03/03 00:54:11;;;;;;;8.70;5.40;;;;;;;8.06;100.00;99798.91;5045680;28;20207;-67
2024/03/03 00:56:38;;;;;;;11.30;6.87;;;;;;;8.36;100.00;99826.81;5045676;28;20184;-67
2024/03/03 00:59:03;;;;;;;10.43;5.83;;;;;;;8.09;100.00;99763.78;5055165;28;20219;-67
2024/03/03 01:01:29;;;;;;;12.60;6.50;;;;;;;8.06;100.00;99774.88;5044062;28;21012;-66
2024/03/03 01:03:55;;;;;;;9.33;5.90;;;;;;;7.93;100.00;99765.88;5046593;28;20724;-67
2024/03/03 01:06:20;;;;;;;11.00;5.40;;;;;;;7.76;100.00;99708.59;5045873;28;20485;-67
2024/03/03 01:08:45;;;;;;;11.80;6.47;;;;;;;8.19;100.00;99761.50;5040890;28;20191;-66
2024/03/03 01:11:11;;;;;;;11.30;5.93;;;;;;;7.97;100.00;99718.19;5048922;28;20700;-67
2024/03/03 01:13:36;;;;;;;10.43;6.50;;;;;;;8.22;100.00;99769.09;5046615;28;20239;-68
2024/03/03 01:16:02;;;;;;;10.57;5.47;;;;;;;7.94;100.00;99753.31;5048654;28;20198;-68
2024/03/03 01:18:29;;;;;;;11.00;6.20;;;;;;;7.61;100.00;99724.03;5050283;28;20178;-68
2024/03/03 01:20:55;;;;;;;10.27;6.23;;;;;;;7.72;100.00;99747.38;5042970;28;20700;-67
2024/03/03 01:23:21;;;;;;;11.00;6.13;;;;;;;8.06;100.00;99879.03;5057450;28;20819;-67
2024/03/03 01:25:49;;;;;;;13.07;6.57;;;;;;;7.87;100.00;99854.81;5058240;28;20429;-68
2024/03/03 01:28:14;;;;;;;12.80;6.00;;;;;;;8.15;100.00;99901.84;5055409;28;20179;-66
2024/03/03 01:30:39;;;;;;;11.40;6.00;;;;;;;7.90;100.00;99934.50;5048597;28;20464;-68
2024/03/03 01:33:05;;;;;;;12.10;6.07;;;;;;;8.12;100.00;99961.00;5049167;28;20209;-68
2024/03/03 01:35:31;;;;;;;10.37;6.13;;;;;;;8.18;100.00;99946.84;5046038;28;20199;-67
2024/03/03 01:37:56;;;;;;;13.53;6.10;;;;;;;8.06;100.00;99943.13;5047821;28;21441;-66
2024/03/03 01:40:22;;;;;;;10.37;5.97;;;;;;;8.06;100.00;99949.28;5052428;28;20218;-67
2024/03/03 01:42:47;;;;;;;9.50;5.93;;;;;;;8.23;100.00;99978.28;5056515;28;21509;-68
2024/03/03 01:45:23;;;;;;;9.47;6.00;;;;;;;7.78;100.00;99946.81;5056244;28;20201;-67
2024/03/03 01:47:54;;;;;;;10.80;6.27;;;;;;;7.92;100.00;100115.84;5052016;28;20187;-67
2024/03/03 01:50:21;;;;;;;10.90;6.83;;;;;;;7.63;100.00;100095.59;5049138;28;20457;-67
2024/03/03 01:52:49;;;;;;;10.17;6.47;;;;;;;7.45;100.00;100067.59;5049196;28;20472;-68
2024/03/03 01:55:18;;;;;;;10.90;6.33;;;;;;;7.36;100.00;100092.78;5047986;28;22969;-66
2024/03/03 01:57:44;;;;;;;10.10;6.43;;;;;;;7.62;100.00;100140.16;5049493;28;20437;-67
2024/03/03 02:00:11;;;;;;;10.70;5.50;;;;;;;7.08;100.00;100090.13;5046838;28;20469;-67
2024/03/03 02:02:38;;;;;;;10.37;5.97;;;;;;;7.38;100.00;100168.13;5044316;28;20468;-68
2024/03/03 02:05:05;;;;;;;11.10;6.30;;;;;;;7.47;100.00;100142.13;5052549;28;20438;-66
2024/03/03 02:07:32;;;;;;;10.57;6.30;;;;;;;7.47;100.00;100174.13;5051516;28;20445;-68
2024/03/03 02:09:58;;;;;;;13.40;7.00;;;;;;;7.65;100.00;100262.53;5050016;28;20469;-66
2024/03/03 02:12:25;;;;;;;10.93;6.90;;;;;;;7.75;100.00;100366.31;5045068;28;20848;-67
2024/03/03 02:14:51;;;;;;;10.47;6.07;;;;;;;7.89;100.00;100563.00;5050013;28;20450;-67
2024/03/03 02:17:18;;;;;;;13.47;7.10;;;;;;;8.05;100.00;100638.63;5052222;28;21181;-67
2024/03/03 02:19:43;;;;;;;9.73;6.23;;;;;;;8.02;100.00;100708.44;5050359;28;20449;-67
2024/03/03 02:22:09;;;;;;;13.97;8.00;;;;;;;7.80;100.00;100705.66;5048842;28;20437;-67
2024/03/03 02:24:34;;;;;;;13.30;8.20;;;;;;;8.15;100.00;100775.38;5052502;28;20188;-68
2024/03/03 02:27:01;;;;;;;10.53;6.70;;;;;;;8.24;100.00;100803.66;5054140;28;20187;-68
2024/03/03 02:29:28;;;;;;;13.40;8.27;;;;;;;8.23;100.00;100820.72;5054677;28;20183;-67
2024/03/03 02:31:53;;;;;;;12.37;7.40;;;;;;;8.30;100.00;100826.16;5048693;28;21015;-67
2024/03/03 02:34:19;;;;;;;12.70;7.50;;;;;;;8.02;100.00;100801.94;5036884;28;20452;-67
2024/03/03 02:36:44;;;;;;;13.43;7.80;;;;;;;8.12;100.00;100813.16;5050407;28;20270;-67
2024/03/03 02:39:10;;;;;;;12.10;7.90;;;;;;;8.33;100.00;100820.44;5055175;28;20266;-68
2024/03/03 02:41:35;;;;;;;12.70;8.00;;;;;;;8.33;100.00;100815.94;5046048;28;20707;-68
2024/03/03 02:44:01;;;;;;;13.80;9.00;;;;;;;8.54;100.00;100849.16;5046475;28;20194;-68
2024/03/03 02:46:26;;;;;;;14.03;8.67;;;;;;;8.34;100.00;100822.94;5043138;28;20219;-66
2024/03/03 02:48:52;;;;;;;13.10;8.40;;;;;;;8.44;100.00;100862.78;5051548;28;20506;-67
2024/03/03 02:51:17;;;;;;;13.50;8.97;;;;;;;8.25;100.00;100861.47;5048429;28;20206;-67
2024/03/03 02:53:42;;;;;;;13.10;8.50;;;;;;;8.38;100.00;100984.63;5048254;28;20210;-67
2024/03/03 02:56:08;;;;;;;15.00;9.40;;;;;;;8.16;100.00;100993.50;5045793;28;20194;-68
2024/03/03 02:58:34;;;;;;;15.23;9.47;;;;;;;8.39;100.00;101153.88;5046981;28;20718;-68
2024/03/03 03:01:00;;;;;;;15.27;10.07;;;;;;;8.02;100.00;101154.53;5049224;28;20464;-68
2024/03/03 03:03:25;;;;;;;15.67;9.53;;;;;;;8.34;100.00;101314.72;5052680;28;20184;-67
2024/03/03 03:05:50;;;;;;;17.10;10.30;;;;;;;8.18;100.00;101389.59;5054090;28;20661;-67
2024/03/03 03:08:16;;;;;;;13.90;8.90;;;;;;;8.19;100.00;101459.91;5046650;28;20198;-66
2024/03/03 03:10:41;;;;;;;15.37;10.40;;;;;;;8.39;100.00;101541.47;5049680;28;20660;-67
2024/03/03 03:13:07;;;;;;;15.20;10.53;;;;;;;7.70;100.00;101487.44;5048102;28;20600;-67
2024/03/03 03:15:35;;;;;;;15.80;10.67;;;;;;;8.00;100.00;101575.97;5045106;28;20291;-68
2024/03/03 03:18:04;;;;;;;16.37;10.23;;;;;;;8.22;100.00;101615.44;5055438;28;20446;-67
2024/03/03 03:20:30;;;;;;;15.57;10.33;;;;;;;8.07;100.00;101623.25;5049555;28;20472;-67
2024/03/03 03:22:55;;;;;;;15.87;10.73;;;;;;;7.21;100.00;101472.13;5045319;28;20438;-67
2024/03/03 03:25:21;;;;;;;13.63;9.90;;;;;;;7.81;100.00;101526.31;5055656;28;20263;-68
2024/03/03 03:27:46;;;;;;;15.97;11.30;;;;;;;7.36;100.00;101482.16;5042644;28;20198;-67
2024/03/03 03:30:12;;;;;;;16.27;10.40;;;;;;;7.96;100.00;101588.81;5052030;28;20208;-67
2024/03/03 03:32:38;;;;;;;19.47;11.70;;;;;;;7.51;100.00;101503.72;5036333;28;21653;-68
2024/03/03 03:35:04;;;;;;;17.60;11.80;;;;;;;7.91;100.00;101618.69;5051334;28;21057;-67
2024/03/03 03:37:30;;;;;;;20.47;11.37;;;;;;;8.01;100.00;101633.72;5047275;28;21145;-68
2024/03/03 03:39:56;;;;;;;18.23;12.83;;;;;;;7.46;100.00;101571.81;5052015;28;20552;-68
2024/03/03 03:42:22;;;;;;;18.60;11.53;;;;;;;7.90;100.00;101657.09;5051831;28;20190;-68
2024/03/03 03:44:47;;;;;;;18.17;12.20;;;;;;;7.73;100.00;101642.00;5048620;28;21360;-68
2024/03/03 03:47:12;;;;;;;19.23;12.80;;;;;;;7.54;100.00;101642.22;5047225;28;20205;-67
2024/03/03 03:49:38;;;;;;;18.87;12.73;;;;;;;7.76;100.00;101654.19;5053857;28;20191;-68
2024/03/03 03:52:04;;;;;;;19.57;12.33;;;;;;;7.83;100.00;101693.44;5053455;28;20198;-68
2024/03/03 03:54:30;;;;;;;20.00;13.37;;;;;;;7.66;100.00;101679.16;5054863;28;20718;-67
2024/03/03 03:56:59;;;;;;;20.83;13.17;;;;;;;7.65;100.00;101684.66;5052050;28;20441;-67
2024/03/03 03:59:25;;;;;;;19.10;12.47;;;;;;;7.29;100.00;101623.41;5054135;28;20434;-67
2024/03/03 04:01:54;;;;;;;20.97;14.07;;;;;;;7.59;100.00;101685.31;5054871;28;20496;-67
2024/03/03 04:04:21;;;;;;;20.37;13.23;;;;;;;7.47;100.00;101642.03;5066830;28;20445;-67
2024/03/03 04:06:47;;;;;;;22.03;13.30;;;;;;;7.77;100.00;101702.09;5053974;28;20532;-68
2024/03/03 04:09:12;;;;;;;19.13;12.83;;;;;;;7.83;100.00;101704.13;5053727;28;21010;-67
2024/03/03 04:11:40;;;;;;;23.00;14.27;;;;;;;7.73;100.00;101682.06;5055286;28;20669;-67
2024/03/03 04:14:05;;;;;;;18.20;13.50;;;;;;;7.67;100.00;101672.00;5053660;28;20284;-68
2024/03/03 04:16:31;;;;;;;19.53;13.83;;;;;;;7.93;100.00;101714.69;5057475;28;20434;-68
2024/03/03 04:18:56;;;;;;;17.83;12.43;;;;;;;7.70;100.00;101691.22;5059792;28;20269;-67
2024/03/03 04:21:22;;;;;;;22.17;15.00;;;;;;;7.72;100.00;101723.09;5055068;28;20199;-68
2024/03/03 04:23:47;;;;;;;20.33;13.47;;;;;;;7.53;100.00;101705.47;5059622;28;20289;-68
2024/03/03 04:26:14;;;;;;;21.60;13.93;;;;;;;7.60;100.00;101716.34;5057594;28;20226;-67
2024/03/03 04:28:40;;;;;;;19.33;13.73;;;;;;;7.66;100.00;101710.38;5058585;28;20434;-68
2024/03/03 04:31:05;;;;;;;23.13;15.80;;;;;;;7.49;100.00;101696.06;5050805;28;20219;-66
2024/03/03 04:33:35;;;;;;;19.73;13.87;;;;;;;7.81;100.00;101778.25;5056597;28;20264;-67
2024/03/03 04:36:01;;;;;;;21.00;14.30;;;;;;;7.91;100.00;101775.44;5055504;28;20194;-68
2024/03/03 04:38:27;;;;;;;23.13;16.03;;;;;;;7.84;100.00;101782.41;5055386;28;20433;-66
2024/03/03 04:40:52;;;;;;;21.93;15.93;;;;;;;7.77;100.00;101803.56;5053685;28;21101;-67
2024/03/03 04:45:48;;;;;;;22.90;14.63;;;;;;;5.54;100.00;101515.63;5030005;28;20219;-69
2024/03/03 04:48:13;;;;;;;19.60;14.00;;;;;;;7.78;100.00;101786.56;5032395;28;20514;-67
2024/03/03 04:50:38;;;;;;;21.73;15.40;;;;;;;7.87;100.00;101828.38;5043465;28;21007;-66
2024/03/03 04:53:04;;;;;;;21.30;14.90;;;;;;;7.70;100.00;101837.25;5047331;28;20216;-66
2024/03/03 04:55:30;;;;;;;21.67;15.33;;;;;;;7.43;100.00;101776.78;5045043;28;20607;-66
2024/03/03 04:57:55;;;;;;;21.50;15.60;;;;;;;7.60;100.00;101810.63;5050809;28;20719;-66
2024/03/03 05:00:21;;;;;;;21.60;14.83;;;;;;;7.61;100.00;101840.88;5050232;28;20468;-66
2024/03/03 05:02:46;;;;;;;23.10;15.73;;;;;;;7.65;100.00;101823.53;5044402;28;20193;-66
2024/03/03 05:05:11;;;;;;;23.30;15.80;;;;;;;7.13;100.00;101778.88;5042940;28;20235;-66
2024/03/03 05:07:37;;;;;;;27.43;16.33;;;;;;;7.43;100.00;101799.00;5043696;28;20195;-66
2024/03/03 05:10:02;;;;;;;24.40;14.87;;;;;;;7.61;100.00;101835.53;5033577;28;20207;-66
2024/03/03 05:12:30;;;;;;;25.90;15.63;;;;;;;7.53;100.00;101854.13;5046575;28;20211;-66
2024/03/03 05:14:55;;;;;;;26.03;15.90;;;;;;;7.32;100.00;101822.41;5034842;28;20636;-66
2024/03/03 05:17:21;;;;;;;22.73;16.00;;;;;;;7.60;100.00;101858.69;5038503;28;20437;-66
2024/03/03 05:19:46;;;;;;;22.00;14.70;;;;;;;7.54;100.00;101851.31;5044465;28;20222;-66
2024/03/03 05:22:12;;;;;;;20.37;15.13;;;;;;;7.11;100.00;101812.88;5044839;28;20225;-66
2024/03/03 05:24:37;;;;;;;24.83;15.83;;;;;;;7.12;100.00;101771.88;5044887;28;20188;-66
2024/03/03 05:27:03;;;;;;;20.20;14.57;;;;;;;7.56;100.00;101852.00;5043738;28;20705;-66
2024/03/03 05:29:29;;;;;;;21.97;15.43;;;;;;;7.05;100.00;101777.97;5044372;28;20183;-66
2024/03/03 05:31:54;;;;;;;23.27;15.20;;;;;;;7.60;100.00;101855.19;5040905;28;20211;-66
2024/03/03 05:34:22;;;;;;;22.20;15.60;;;;;;;7.00;100.00;101800.63;5058283;28;20207;-66
2024/03/03 05:36:48;;;;;;;24.73;16.10;;;;;;;7.26;100.00;101842.53;5042377;28;20923;-66
2024/03/03 05:39:16;;;;;;;22.00;15.63;;;;;;;7.44;100.00;101863.91;5043047;28;20500;-66
2024/03/03 05:41:42;;;;;;;24.33;14.07;;;;;;;7.56;100.00;101881.38;5042065;28;20613;-66
2024/03/03 05:44:08;;;;;;;24.83;15.97;;;;;;;7.42;100.00;101901.41;5040121;28;20532;-65
2024/03/03 05:46:34;;;;;;;24.50;16.20;;;;;;;7.16;100.00;101845.28;5042666;28;20443;-66
2024/03/03 05:49:00;;;;;;;25.17;17.10;;;;;;;7.34;100.00;101893.31;5044077;28;20446;-66
2024/03/03 05:51:25;;;;;;;26.27;16.00;;;;;;;6.93;100.00;101788.03;5056531;28;20472;-66
2024/03/03 05:53:51;;;;;;;24.97;16.77;;;;;;;7.59;100.00;101898.91;5045799;28;20296;-66
2024/03/03 05:56:16;;;;;;;22.43;15.40;;;;;;;7.43;100.00;101900.44;5044469;28;20191;-66
2024/03/03 05:58:43;;;;;;;22.80;15.73;;;;;;;7.60;100.00;101919.25;5047235;28;20195;-66
2024/03/03 06:01:09;;;;;;;26.17;16.60;;;;;;;7.59;100.00;101922.94;5044936;28;20216;-66
2024/03/03 06:03:35;;;;;;;22.30;16.20;;;;;;;7.35;100.00;101934.22;5042510;28;20436;-66
2024/03/03 06:06:00;;;;;;;23.50;16.50;;;;;;;7.44;100.00;101957.34;5040919;28;20445;-65
2024/03/03 06:08:25;;;;;;;21.87;16.37;;;;;;;7.31;100.00;101971.03;5045422;28;20187;-66
2024/03/03 06:10:51;;;;;;;24.53;16.00;;;;;;;6.56;100.00;101868.94;5047214;28;20210;-66
2024/03/03 06:13:16;;;;;;;22.33;15.50;;;;;;;6.85;100.00;101943.47;5045823;28;20269;-66
2024/03/03 06:15:42;;;;;;;23.10;15.13;;;;;;;7.01;100.00;102014.88;5044967;28;20261;-66
2024/03/03 06:18:07;;;;;;;22.93;16.40;;;;;;;7.18;100.00;101983.91;5044496;28;20191;-66
2024/03/03 06:20:33;;;;;;;28.57;16.37;;;;;;;7.17;100.00;101990.19;5040936;28;20200;-66
2024/03/03 06:22:59;;;;;;;24.30;16.03;;;;;;;7.18;100.00;101984.72;5044305;28;20180;-66
2024/03/03 06:25:24;;;;;;;24.60;16.87;;;;;;;6.79;100.00;101936.06;5045366;28;20523;-66
2024/03/03 06:27:50;;;;;;;24.00;16.07;;;;;;;7.01;100.00;101978.34;5045625;28;20195;-66
2024/03/03 06:30:15;;;;;;;26.23;16.27;;;;;;;6.56;100.00;101901.75;5054053;28;20206;-66
2024/03/03 06:32:41;;;;;;;23.70;15.33;;;;;;;7.18;100.00;101979.41;5043210;28;20218;-66
2024/03/03 06:35:10;;;;;;;22.77;15.30;;;;;;;6.69;100.00;101908.59;5041392;28;20565;-65
2024/03/03 06:37:39;;;;;;;23.60;15.93;;;;;;;7.06;100.00;102019.75;5054105;28;20187;-66
2024/03/03 06:40:09;;;;;;;24.00;16.30;;;;;;;6.70;100.00;101977.75;5056364;28;20445;-66
2024/03/03 06:42:35;;;;;;;24.37;16.10;;;;;;;6.93;100.00;102036.09;5056482;28;20509;-66
2024/03/03 06:45:00;;;;;;;27.93;17.87;;;;;;;6.79;100.00;102014.22;5052492;28;20437;-66
2024/03/03 06:47:28;;;;;;;29.10;16.27;;;;;;;6.26;100.00;101910.84;5054067;28;20777;-66
2024/03/03 06:49:57;;;;;;;24.90;16.90;;;;;;;6.81;100.00;102008.75;5053528;28;20178;-66
2024/03/03 06:52:22;;;;;;;27.43;17.60;;;;;;;6.71;100.00;102038.13;5047865;28;20473;-66
2024/03/03 06:54:48;;;;;;;25.47;16.87;;;;;;;6.50;100.00;102038.28;5053420;28;20428;-65
2024/03/03 06:57:14;;;;;;;25.60;16.20;;;;;;;6.31;100.00;101967.22;5048332;28;20195;-66
2024/03/03 06:59:40;;;;;;;28.10;17.07;;;;;;;6.64;100.00;102034.34;5046775;28;20203;-65
2024/03/03 07:02:08;;;;;;;25.60;16.53;;;;;;;6.44;100.00;101956.25;5057884;28;20457;-66
2024/03/03 07:04:33;;;;;;;22.33;15.83;;;;;;;6.52;100.00;101972.34;5050474;28;20437;-66
2024/03/03 07:06:58;;;;;;;21.87;15.90;;;;;;;6.73;100.00;102032.63;5040166;28;20449;-66
2024/03/03 07:09:24;;;;;;;25.57;16.57;;;;;;;6.72;100.00;101993.63;5048212;28;20194;-66
2024/03/03 07:11:54;;;;;;;25.83;17.63;;;;;;;6.83;100.00;102037.94;5047879;28;20199;-66
2024/03/03 07:14:21;;;;;;;28.83;17.57;;;;;;;6.99;100.00;102038.16;5048382;28;20203;-66
2024/03/03 07:16:49;;;;;;;25.80;15.53;;;;;;;6.96;100.00;102054.47;5044405;28;20525;-66
2024/03/03 07:19:15;;;;;;;24.27;16.03;;;;;;;6.96;100.00;102071.31;5043129;28;20446;-66
2024/03/03 07:21:40;;;;;;;24.90;17.40;;;;;;;6.81;100.00;102032.75;5046757;28;20469;-65
2024/03/03 07:24:06;;;;;;;27.87;17.30;;;;;;;7.14;100.00;102098.06;5050547;28;20444;-66
2024/03/03 07:26:32;;;;;;;26.73;17.47;;;;;;;7.05;100.00;102053.59;5049917;28;20650;-66
2024/03/03 07:29:02;;;;;;;28.03;16.37;;;;;;;7.16;100.00;102089.94;5050216;28;20257;-66
2024/03/03 07:31:27;;;;;;;25.07;17.20;;;;;;;7.47;100.00;102135.91;5047568;28;20609;-66
2024/03/03 07:33:53;;;;;;;27.67;16.83;;;;;;;6.89;100.00;102030.22;5049929;28;20466;-66
2024/03/03 07:36:18;;;;;;;31.83;18.17;;;;;;;7.65;100.00;102174.19;5048023;28;20187;-66
2024/03/03 07:38:44;;;;;;;26.57;18.03;;;;;;;7.83;100.00;102178.75;5051638;28;20187;-66
2024/03/03 07:41:10;;;;;;;29.43;18.67;;;;;;;7.70;100.00;102197.78;5064759;28;20258;-68
2024/03/03 07:43:35;;;;;;;25.67;18.10;;;;;;;7.63;100.00;102216.19;5050568;28;20175;-66
2024/03/03 07:46:01;;;;;;;27.20;17.43;;;;;;;7.40;100.00;102116.09;5048418;28;20286;-66
2024/03/03 07:48:26;;;;;;;25.80;17.20;;;;;;;8.01;100.00;102184.97;5049018;28;20662;-66
2024/03/03 07:50:52;;;;;;;23.60;16.77;;;;;;;8.01;100.00;102178.78;5062599;28;20210;-66
2024/03/03 07:53:20;;;;;;;28.90;17.97;;;;;;;7.66;100.00;102122.44;5048292;28;20636;-66
2024/03/03 07:55:45;;;;;;;25.20;15.87;;;;;;;7.91;100.00;102169.00;5055759;28;20195;-66
2024/03/03 07:58:11;;;;;;;25.03;17.60;;;;;;;7.82;100.00;102110.28;5059553;28;20998;-66
2024/03/03 08:00:36;;;;;;;26.97;18.30;;;;;;;7.86;100.00;102114.31;5045118;28;20207;-66
2024/03/03 08:03:05;;;;;;;25.70;18.03;;;;;;;8.14;100.00;102168.59;5050884;28;20214;-66
2024/03/03 08:05:34;;;;;;;28.23;19.23;;;;;;;7.51;100.00;102078.53;5049237;28;20179;-66
2024/03/03 08:08:05;;;;;;;29.30;19.00;;;;;;;8.06;100.00;102177.34;5050208;28;20462;-65
2024/03/03 08:10:31;;;;;;;27.43;18.60;;;;;;;7.90;100.00;102129.09;5044181;28;20914;-66
2024/03/03 08:12:57;;;;;;;27.57;18.50;;;;;;;8.10;100.00;102119.09;5048511;28;20460;-66
2024/03/03 08:15:23;;;;;;;25.00;17.67;;;;;;;8.04;100.00;102138.41;5045329;28;20453;-66
2024/03/03 08:17:48;;;;;;;28.60;18.10;;;;;;;8.54;100.00;102151.31;5046891;28;20448;-66
2024/03/03 08:20:14;;;;;;;26.08;17.52;;;;;;;8.49;100.00;102150.94;5034384;28;20466;-65
2024/03/03 08:22:41;;;;;;;26.03;18.83;;;;;;;8.49;100.00;102175.00;5051338;28;20186;-66
2024/03/03 08:25:13;;;;;;;26.60;17.77;;;;;;;8.48;100.00;102136.72;5044150;28;20450;-66
2024/03/03 08:27:41;;;;;;;24.50;17.60;;;;;;;8.69;100.00;102160.47;5048263;28;20513;-67
2024/03/03 08:30:11;;;;;;;25.10;17.20;;;;;;;8.78;100.00;102169.41;5050392;28;20462;-66
2024/03/03 08:32:37;;;;;;;24.17;17.13;;;;;;;8.15;100.00;102072.22;5044446;28;20468;-66
2024/03/03 08:35:04;;;;;;;31.97;20.63;;;;;;;8.34;100.00;102162.13;5044648;28;21987;-66
2024/03/03 08:37:30;;;;;;;26.60;17.83;;;;;;;8.20;100.00;102135.06;5046921;28;20434;-66
2024/03/03 08:39:55;;;;;;;27.80;17.97;;;;;;;8.32;100.00;102142.72;5047556;28;20472;-67
2024/03/03 08:42:23;;;;;;;26.37;18.50;;;;;;;8.33;100.00;102093.63;5047591;28;20241;-66
2024/03/03 08:44:49;;;;;;;25.67;17.00;;;;;;;8.42;100.00;102089.22;5047281;28;20665;-66
2024/03/03 08:47:14;;;;;;;27.90;17.73;;;;;;;8.46;100.00;102116.47;5044311;28;20451;-69
2024/03/03 08:49:40;;;;;;;27.07;18.37;;;;;;;8.82;100.00;102158.25;5046867;28;20195;-66
2024/03/03 08:52:05;;;;;;;23.20;16.60;;;;;;;8.79;100.00;102149.69;5042975;28;20199;-66
2024/03/03 08:54:31;;;;;;;27.47;18.03;;;;;;;8.50;100.00;102139.22;5050981;28;20179;-66
2024/03/03 08:56:57;;;;;;;25.67;17.47;;;;;;;8.82;100.00;102136.00;5048305;28;20202;-66
2024/03/03 08:59:23;;;;;;;25.70;17.07;;;;;;;8.80;100.00;102114.75;5045282;28;20434;-66
2024/03/03 09:01:48;;;;;;;28.00;18.03;;;;;;;8.92;100.00;102123.38;5045120;28;20207;-66
2024/03/03 09:04:14;;;;;;;29.50;17.10;;;;;;;9.30;100.00;102149.88;5038111;28;20654;-66
2024/03/03 09:06:40;;;;;;;28.23;18.30;;;;;;;9.01;100.00;102119.75;5049961;28;20179;-66
2024/03/03 09:09:05;;;;;;;25.87;16.90;;;;;;;8.77;100.00;102023.28;5046547;28;20194;-66
2024/03/03 09:11:33;;;;;;;24.90;17.80;;;;;;;9.48;100.00;102105.09;5046798;28;20207;-66
2024/03/03 09:13:59;;;;;;;25.00;17.83;;;;;;;9.54;100.00;102075.00;5047424;28;20215;-66
2024/03/03 09:16:25;;;;;;;28.30;16.80;;;;;;;9.63;100.00;102068.69;5044899;28;20445;-66
2024/03/03 09:18:53;;;;;;;26.50;17.33;;;;;;;9.72;100.00;102080.28;5043890;28;20631;-66
2024/03/03 09:21:21;;;;;;;31.40;16.97;;;;;;;9.93;100.00;102075.28;5036942;28;20210;-65
2024/03/03 09:23:47;;;;;;;23.93;16.07;;;;;;;9.54;100.00;101988.44;5036766;28;21216;-66
2024/03/03 09:26:13;;;;;;;27.03;17.03;;;;;;;9.78;100.00;101993.88;5030865;28;20437;-66
2024/03/03 09:28:39;;;;;;;25.57;16.57;;;;;;;10.03;100.00;102016.16;5041271;28;20534;-65
2024/03/03 09:31:05;;;;;;;24.10;16.40;;;;;;;9.87;100.00;101976.78;5043401;28;20207;-65
2024/03/03 09:33:31;;;;;;;24.43;16.40;;;;;;;9.96;100.00;101983.00;5039376;28;22052;-66
2024/03/03 09:35:56;;;;;;;25.80;16.23;;;;;;;10.00;100.00;101987.00;5046791;28;20229;-66
2024/03/03 09:38:21;;;;;;;25.63;16.33;;;;;;;9.87;100.00;101981.31;5052299;28;20608;-66
2024/03/03 09:40:47;;;;;;;26.30;16.60;;;;;;;9.87;100.00;101965.25;5047634;28;20195;-66
2024/03/03 09:43:18;;;;;;;24.73;17.10;;;;;;;9.86;100.00;101950.97;5049171;28;20179;-66
2024/03/03 09:45:50;;;;;;;23.23;15.17;;;;;;;10.06;100.00;101967.56;5050013;28;20277;-66
2024/03/03 09:48:15;;;;;;;23.27;15.37;;;;;;;9.80;100.00;101932.91;5047868;28;20449;-66
2024/03/03 09:50:42;;;;;;;25.70;16.87;;;;;;;10.12;100.00;101963.38;5056181;28;21183;-66
2024/03/03 09:53:10;;;;;;;25.40;16.83;;;;;;;10.19;100.00;101946.47;5054493;28;20283;-66
2024/03/03 09:55:40;;;;;;;25.17;16.90;;;;;;;10.12;100.00;101915.13;5050250;28;20434;-66
2024/03/03 09:58:09;;;;;;;29.83;15.70;;;;;;;10.24;100.00;101929.03;5045136;28;20465;-66
2024/03/03 10:00:35;;;;;;;30.00;16.37;;;;;;;9.96;100.00;101890.03;5050504;28;20465;-66
2024/03/03 10:03:02;;;;;;;26.73;15.70;;;;;;;10.26;100.00;101918.97;5055517;28;20838;-66
2024/03/03 10:05:30;;;;;;;24.97;17.10;;;;;;;10.35;100.00;101900.03;5055163;28;20252;-66
2024/03/03 10:08:00;;;;;;;22.80;16.27;;;;;;;10.33;100.00;101842.25;5065319;28;20445;-66
2024/03/03 10:10:30;;;;;;;25.37;17.10;;;;;;;10.49;100.00;101850.22;5049315;28;20482;-66
2024/03/03 10:12:58;;;;;;;23.57;15.90;;;;;;;10.69;100.00;101852.47;5045052;28;20461;-66
2024/03/03 10:15:23;;;;;;;21.43;14.57;;;;;;;10.78;100.00;101840.69;5048789;28;20507;-66
2024/03/03 10:17:49;;;;;;;24.20;16.10;;;;;;;10.87;100.00;101818.16;5049546;28;22690;-66
2024/03/03 10:20:14;;;;;;;22.47;15.20;;;;;;;11.12;100.00;101839.50;5045284;28;20211;-66
2024/03/03 10:22:43;;;;;;;23.87;16.23;;;;;;;11.26;100.00;101820.75;5046227;28;20264;-66
2024/03/03 10:25:13;;;;;;;24.03;15.33;;;;;;;11.38;100.00;101806.91;5047436;28;20635;-66
2024/03/03 10:27:41;;;;;;;20.37;14.77;;;;;;;11.57;100.00;101773.31;5044904;28;20445;-66
2024/03/03 10:30:09;;;;;;;21.87;15.23;;;;;;;11.53;100.00;101732.56;5041138;28;20457;-65
2024/03/03 10:32:37;;;;;;;22.17;14.80;;;;;;;11.68;100.00;101735.25;5048721;28;20469;-68
2024/03/03 10:35:04;;;;;;;22.47;14.77;;;;;;;11.73;100.00;101692.53;5047141;28;20452;-66
2024/03/03 10:37:30;;;;;;;23.17;14.37;;;;;;;11.71;100.00;101649.72;5050930;28;20429;-66
2024/03/03 10:39:55;;;;;;;20.63;13.60;;;;;;;11.35;100.00;101585.16;5044227;28;20785;-66
2024/03/03 10:42:21;;;;;;;19.23;12.67;;;;;;;11.95;100.00;101664.75;5048196;28;20435;-66
2024/03/03 10:44:47;;;;;;;20.13;13.40;;;;;;;11.87;100.00;101600.34;5050049;28;20677;-66
2024/03/03 10:47:14;;;;;;;18.40;12.23;;;;;;;12.00;100.00;101594.25;5025381;28;20501;-66
2024/03/03 10:49:42;;;;;;;22.10;14.20;;;;;;;11.73;100.00;101532.13;5053948;28;20175;-66
2024/03/03 10:52:09;;;;;;;20.53;13.20;;;;;;;12.02;100.00;101543.84;5054682;28;20461;-66
2024/03/03 10:54:34;;;;;;;17.77;12.10;;;;;;;12.10;100.00;101499.88;5051774;28;20940;-66
2024/03/03 10:57:00;;;;;;;20.87;14.00;;;;;;;12.28;100.00;101497.53;5048601;28;20434;-66
2024/03/03 10:59:29;;;;;;;18.60;12.67;;;;;;;12.20;100.00;101487.72;5048179;28;20187;-66
2024/03/03 11:01:57;;;;;;;20.70;12.70;;;;;;;12.48;100.00;101481.56;5043040;28;20465;-69
2024/03/03 11:04:48;;;;;;;21.87;13.60;;;;;;;12.54;100.00;101466.50;5035182;28;20510;-69
2024/03/03 11:07:13;;;;;;;20.20;12.80;;;;;;;12.59;100.00;101472.13;5039834;28;20923;-68
2024/03/03 11:09:39;;;;;;;20.93;13.50;;;;;;;12.50;100.00;101451.75;5043205;28;20425;-68